Terminal Aerodrome Forecast
Issued by NWS Sterling, VA

Current Version | Previous Version | Graphics & Text | Print | Product List | Glossary On
Versions: 1 2 3 4 5 6 7 8 9 10 11 12 13 14 15 16 17 18 19 20 21
811
FTUS41 KLWX 151734
TAFIAD
TAF
KIAD 151734Z 1518/1624 20011KT P6SM SCT250
     FM160200 24010KT P6SM BKN060
     FM160500 30011KT P6SM BKN050
     FM161100 33010KT P6SM SCT200=

USA.gov is the U.S. government's official web portal to all federal, state and local government web resources and services.